Time;durP1;ratioP1;P1;durP2;ratioP2;P2;SDS_P1;SDS_P2;PMS_P1;PMS_P2;Temp;Humidity;BMP_temperature;BMP_pressure;BME280_temperature;BME280_humidity;BME280_pressure;Samples;Min_cycle;Max_cycle;Signal;HPM_P1;HPM_P2
2021/01/15 00:01:21;;;;;;;;;8.00;8.00;20.00;81.60;;;18.76;62.86;102388.50;5049116;28;8759;-50
2021/01/15 00:03:48;;;;;;;;;9.00;8.00;20.00;81.70;;;18.76;62.80;102379.63;5040410;28;8774;-52
2021/01/15 00:06:23;;;;;;;;;8.00;8.00;20.00;81.70;;;18.77;62.55;102392.88;5050583;28;8794;-49
2021/01/15 00:08:51;;;;;;;;;6.00;6.00;19.90;81.60;;;18.75;62.76;102402.88;5035962;28;8786;-53
2021/01/15 00:11:23;;;;;;;;;11.25;8.50;19.90;81.50;;;18.76;62.92;102412.59;5040982;28;8806;-52
2021/01/15 00:13:51;;;;;;;;;8.00;6.75;19.90;81.50;;;18.76;62.76;102427.81;5036641;28;8818;-52
2021/01/15 00:16:30;;;;;;;;;9.00;7.50;20.20;81.70;;;18.77;62.74;102433.03;5035423;28;8905;-51
2021/01/15 00:18:59;;;;;;;;;6.25;6.00;20.00;81.60;;;18.77;62.67;102432.19;5052181;28;8917;-52
2021/01/15 00:21:30;;;;;;;;;8.25;8.00;20.00;81.60;;;18.77;62.80;102435.72;5055062;28;8804;-48
2021/01/15 00:23:59;;;;;;;;;9.25;7.25;19.90;81.60;;;18.77;62.78;102434.84;5053143;28;8792;-47
2021/01/15 00:26:29;;;;;;;;;6.00;6.00;20.10;81.50;;;18.76;62.67;102420.63;5037043;28;8810;-49
2021/01/15 00:28:56;;;;;;;;;6.00;6.00;20.10;81.40;;;18.76;63.01;102425.13;5045342;28;8836;-47
2021/01/15 00:31:35;;;;;;;;;6.25;6.00;19.80;81.60;;;18.76;62.99;102431.34;5050949;28;8811;-46
2021/01/15 00:34:04;;;;;;;;;8.00;7.00;19.90;81.80;;;18.73;62.69;102415.47;5043147;28;8860;-47
2021/01/15 00:36:31;;;;;;;;;6.75;6.75;19.90;81.80;;;18.74;62.53;102427.88;5042785;28;8832;-47
2021/01/15 00:38:58;;;;;;;;;7.00;7.00;19.70;81.60;;;18.73;62.75;102423.50;5040144;28;8798;-47
2021/01/15 00:41:25;;;;;;;;;8.75;8.25;19.90;81.60;;;18.74;62.62;102433.22;5041716;28;8883;-48
2021/01/15 00:43:52;;;;;;;;;7.00;6.50;19.90;81.40;;;18.73;62.50;102428.84;5053254;28;8800;-50
2021/01/15 00:46:31;;;;;;;;;6.75;6.75;19.90;81.40;;;18.73;62.60;102430.69;5043502;28;8883;-48
2021/01/15 00:49:07;;;;;;;;;11.50;7.00;20.00;81.40;;;18.73;62.75;102434.22;5052579;28;8905;-47
2021/01/15 00:51:35;;;;;;;;;5.75;5.00;19.90;81.30;;;18.73;62.27;102425.34;5038117;28;8849;-47
2021/01/15 00:54:06;;;;;;;;;4.50;4.50;19.90;81.30;;;18.72;62.54;102424.44;5041826;28;8845;-46
2021/01/15 00:56:33;;;;;;;;;6.00;5.50;19.80;81.20;;;18.71;62.43;102414.72;5043646;28;10542;-49
2021/01/15 00:59:00;;;;;;;;;5.25;5.25;19.90;81.20;;;18.72;62.35;102427.13;5042101;28;8856;-48
2021/01/15 01:01:27;;;;;;;;;6.75;5.75;19.90;81.30;;;18.70;62.44;102421.06;5050892;28;8883;-47
2021/01/15 01:03:54;;;;;;;;;6.00;6.00;19.80;81.10;;;18.69;62.39;102418.50;5051074;28;8820;-47
2021/01/15 01:06:22;;;;;;;;;6.25;6.00;19.90;81.20;;;18.69;62.26;102410.47;5050346;28;8812;-48
2021/01/15 01:08:50;;;;;;;;;7.50;7.00;20.00;81.30;;;18.70;62.34;102421.06;5044068;28;8814;-48
2021/01/15 01:11:23;;;;;;;;;4.75;3.75;19.70;81.00;;;18.69;62.28;102416.66;5047515;28;8798;-48
2021/01/15 01:13:56;;;;;;;;;4.00;4.00;20.10;81.20;;;18.68;62.42;102409.59;5045326;28;8788;-46
2021/01/15 01:16:25;;;;;;;;;6.00;5.25;20.00;81.20;;;18.67;62.43;102423.94;5051893;28;8843;-49
2021/01/15 01:18:53;;;;;;;;;3.00;2.25;20.00;81.10;;;18.67;62.48;102421.25;5048601;28;8782;-49
2021/01/15 01:21:22;;;;;;;;;7.75;6.75;19.90;81.10;;;18.67;62.46;102418.59;5054198;28;8790;-47
2021/01/15 01:23:49;;;;;;;;;6.25;5.25;20.00;81.10;;;18.67;62.43;102418.59;5048260;28;8913;-49
2021/01/15 01:26:17;;;;;;;;;7.25;6.75;19.90;81.10;;;18.66;62.42;102424.91;5047020;28;8825;-48
2021/01/15 01:28:45;;;;;;;;;6.00;5.50;19.90;81.00;;;18.66;62.25;102443.66;5050238;28;8834;-50
2021/01/15 01:31:16;;;;;;;;;4.25;4.25;19.90;81.10;;;18.64;62.47;102446.44;5052565;28;8788;-50
2021/01/15 01:33:44;;;;;;;;;7.00;7.00;19.70;81.00;;;18.65;62.24;102441.97;5048258;28;8760;-47
2021/01/15 01:36:12;;;;;;;;;7.25;6.75;19.90;81.00;;;18.62;62.36;102448.41;5046696;28;8911;-47
2021/01/15 01:38:42;;;;;;;;;5.00;5.00;19.90;81.00;;;18.65;62.36;102447.31;5045183;28;8857;-49
2021/01/15 01:41:10;;;;;;;;;6.00;6.00;19.90;81.00;;;18.63;62.35;102451.94;5028546;28;8801;-50
2021/01/15 01:43:37;;;;;;;;;5.00;5.00;19.60;80.80;;;18.63;62.23;102455.44;5045097;28;8816;-48
2021/01/15 01:46:08;;;;;;;;;6.25;6.00;19.70;80.90;;;18.63;62.18;102459.97;5039628;28;8820;-50
2021/01/15 01:48:37;;;;;;;;;5.00;4.75;19.80;80.90;;;18.66;62.35;102465.06;5037654;28;8833;-52
2021/01/15 01:51:05;;;;;;;;;4.50;4.00;19.90;81.00;;;18.70;62.52;102468.38;5029187;28;8806;-52
2021/01/15 01:53:37;;;;;;;;;5.25;4.75;19.70;81.30;;;18.72;62.48;102478.00;5021976;28;8818;-51
2021/01/15 01:56:06;;;;;;;;;5.00;5.00;20.00;81.40;;;18.76;62.62;102481.34;5041227;28;8915;-51
2021/01/15 01:58:34;;;;;;;;;4.25;4.00;20.00;81.60;;;18.78;62.31;102482.94;5043651;28;8772;-47
2021/01/15 02:01:05;;;;;;;;;5.50;5.00;19.90;81.20;;;18.79;62.23;102479.28;5048726;28;8788;-54
2021/01/15 02:03:32;;;;;;;;;5.00;5.00;20.10;81.40;;;18.84;62.24;102470.91;5044832;28;8789;-51
2021/01/15 02:05:59;;;;;;;;;5.75;5.00;20.00;81.30;;;18.87;62.41;102471.53;5041497;28;8773;-55
2021/01/15 02:08:30;;;;;;;;;4.00;3.50;19.90;81.10;;;18.87;62.33;102471.53;5034057;28;8791;-55
2021/01/15 02:12:31;;;;;;;;;4.50;4.50;20.10;81.40;;;18.92;62.24;102470.34;5036671;28;8809;-51
2021/01/15 02:15:13;;;;;;;;;4.25;4.25;20.10;81.40;;;18.94;62.57;102460.38;4886139;29;8864;-54
2021/01/15 02:18:05;;;;;;;;;4.25;4.25;20.00;81.40;;;18.97;62.36;102455.63;4955928;28;8823;-54
2021/01/15 02:20:58;;;;;;;;;4.75;4.75;20.10;81.50;;;18.99;62.52;102463.56;5027393;28;8795;-54
2021/01/15 02:23:31;;;;;;;;;5.75;4.50;20.10;81.70;;;19.00;62.75;102460.75;5037130;28;8804;-50
2021/01/15 02:26:06;;;;;;;;;5.00;3.00;20.30;81.80;;;19.00;62.60;102457.22;5044242;28;8814;-49
2021/01/15 02:29:23;;;;;;;;;3.50;3.00;20.10;81.80;;;19.03;62.47;102447.16;5048758;28;8827;-52
2021/01/15 02:32:11;;;;;;;;;3.00;3.00;20.10;81.50;;;19.01;62.10;102448.25;5035859;28;8808;-48
2021/01/15 02:34:53;;;;;;;;;1.75;1.75;20.00;81.10;;;19.01;62.07;102443.75;5045819;28;8801;-52
2021/01/15 02:37:40;;;;;;;;;3.00;2.75;20.00;81.50;;;19.07;62.00;102450.44;5045040;28;8796;-51
2021/01/15 02:40:30;;;;;;;;;3.00;3.00;20.20;81.40;;;19.15;62.03;102445.34;5036574;28;8793;-50
2021/01/15 02:43:01;;;;;;;;;2.00;2.00;20.20;80.80;;;19.24;61.89;102449.19;5060364;28;8785;-49
2021/01/15 02:45:28;;;;;;;;;3.25;1.00;20.60;80.40;;;19.31;61.71;102450.41;5046137;28;8811;-52
2021/01/15 02:48:00;;;;;;;;;2.50;1.50;20.70;80.60;;;19.37;61.55;102447.25;5031677;28;8813;-52
2021/01/15 02:50:28;;;;;;;;;1.00;1.00;21.00;79.60;;;19.43;61.53;102453.97;5019983;28;8887;-51
2021/01/15 02:52:56;;;;;;;;;2.00;1.00;21.00;79.30;;;19.44;61.57;102455.69;5051355;28;8970;-50
2021/01/15 02:55:24;;;;;;;;;1.00;1.00;21.10;79.40;;;19.46;61.20;102457.28;5056759;28;8830;-51
2021/01/15 02:57:52;;;;;;;;;1.60;1.60;21.00;79.60;;;19.45;61.26;102444.84;5041004;28;8807;-48
2021/01/15 03:00:22;;;;;;;;;1.20;0.00;20.50;79.50;;;19.48;61.09;102463.34;5037343;28;8858;-49
2021/01/15 03:03:14;;;;;;;;;32.75;29.50;20.70;80.00;;;19.48;61.61;102457.16;5051109;28;8777;-51
2021/01/15 03:06:15;;;;;;;;;77.80;62.20;20.60;80.60;;;19.55;61.47;102453.03;5047376;28;8808;-53
2021/01/15 03:08:45;;;;;;;;;110.40;99.00;20.80;80.30;;;19.59;61.32;102464.34;5017638;28;8795;-49
2021/01/15 03:11:13;;;;;;;;;108.00;103.00;20.90;80.00;;;19.60;61.32;102469.59;5035056;28;8792;-53
2021/01/15 03:13:41;;;;;;;;;110.75;101.00;20.90;79.90;;;19.62;61.08;102472.16;5044038;28;8871;-49
2021/01/15 03:16:11;;;;;;;;;129.00;118.50;20.80;79.90;;;19.61;61.09;102473.97;5030275;28;8924;-52
2021/01/15 03:18:40;;;;;;;;;231.33;207.67;20.60;80.00;;;19.62;61.57;102480.22;5026258;28;8769;-52
2021/01/15 03:21:07;;;;;;;;;207.50;183.00;20.70;80.90;;;19.65;61.62;102474.59;5030164;28;11640;-52
2021/01/15 03:23:38;;;;;;;;;199.75;180.25;20.80;80.90;;;19.69;61.63;102473.41;5039103;28;12307;-53
2021/01/15 03:26:07;;;;;;;;;191.25;173.25;20.90;80.50;;;19.70;61.41;102467.94;5040024;28;11543;-51
2021/01/15 03:28:33;;;;;;;;;189.75;173.75;20.90;80.30;;;19.70;61.35;102459.91;5036559;28;11568;-49
2021/01/15 03:31:00;;;;;;;;;224.00;192.00;20.90;80.40;;;19.71;61.39;102461.59;5040760;28;11564;-53
2021/01/15 03:33:27;;;;;;;;;208.33;196.67;20.70;80.40;;;19.71;61.51;102472.31;5047369;28;11662;-53
2021/01/15 03:35:54;;;;;;;;;250.50;240.25;20.70;80.70;;;19.72;61.62;102476.72;5048104;28;8840;-49
2021/01/15 03:38:22;;;;;;;;;264.75;239.75;20.90;81.00;;;19.71;61.91;102475.00;5043275;28;11571;-50
2021/01/15 03:40:49;;;;;;;;;278.50;242.00;20.80;81.30;;;19.72;62.10;102470.50;5025396;28;11509;-53
2021/01/15 03:43:21;;;;;;;;;252.00;230.25;20.60;81.40;;;19.73;62.16;102473.06;5043365;28;8817;-53
2021/01/15 03:45:50;;;;;;;;;287.60;252.40;20.50;81.60;;;19.74;62.24;102471.22;5036234;28;8787;-51
2021/01/15 03:48:19;;;;;;;;;270.00;231.25;20.70;81.90;;;19.72;62.42;102471.38;5046751;28;8802;-50
2021/01/15 03:50:46;;;;;;;;;265.00;235.80;20.60;81.90;;;19.73;62.58;102483.78;5039172;28;12754;-51
2021/01/15 03:53:17;;;;;;;;;297.00;250.60;20.60;82.00;;;19.73;62.53;102478.41;5035579;28;8820;-48
2021/01/15 03:55:45;;;;;;;;;261.00;238.25;21.00;82.30;;;19.73;62.57;102478.41;5046910;28;8835;-51
2021/01/15 03:58:12;;;;;;;;;253.75;228.75;20.60;82.20;;;19.75;62.44;102485.50;5043498;28;11357;-51
2021/01/15 04:00:39;;;;;;;;;269.50;237.75;20.70;82.30;;;19.75;62.55;102489.03;5040213;28;8781;-53
2021/01/15 04:03:06;;;;;;;;;257.50;224.25;20.90;82.60;;;19.75;62.67;102504.28;5047248;28;10778;-54
2021/01/15 04:05:34;;;;;;;;;271.33;235.00;20.60;82.30;;;19.75;62.48;102498.91;5041259;28;11524;-53
2021/01/15 04:08:01;;;;;;;;;231.33;215.33;20.70;82.30;;;19.77;62.44;102499.63;5042756;28;8922;-55
2021/01/15 04:10:28;;;;;;;;;248.00;225.00;20.70;82.10;;;19.77;62.25;102505.00;5042185;28;8815;-52
2021/01/15 04:12:55;;;;;;;;;238.00;208.67;20.70;81.90;;;19.77;62.18;102502.31;5040281;28;8826;-48
2021/01/15 04:15:22;;;;;;;;;226.00;200.33;20.60;81.50;;;19.75;62.11;102497.09;5044369;28;8832;-52
2021/01/15 04:17:49;;;;;;;;;219.33;199.00;20.60;81.40;;;19.76;61.96;102498.78;5044692;28;8795;-50
2021/01/15 04:20:16;;;;;;;;;219.50;193.00;20.50;81.30;;;19.74;61.91;102484.63;5046648;28;12334;-52
2021/01/15 04:22:48;;;;;;;;;174.75;152.75;20.70;81.80;;;19.72;61.48;102482.09;5060339;28;11596;-52
2021/01/15 04:25:15;;;;;;;;;181.75;170.50;20.40;81.40;;;19.75;62.33;102496.22;5031605;28;12343;-53
2021/01/15 04:27:43;;;;;;;;;170.50;155.00;20.60;82.70;;;19.77;61.80;102488.91;5048218;28;11565;-54
2021/01/15 04:30:13;;;;;;;;;154.25;144.00;20.60;81.70;;;19.80;61.62;102491.38;5039958;28;11097;-52
2021/01/15 04:32:50;;;;;;;;;148.00;140.75;20.60;81.40;;;19.79;61.55;102484.28;5039613;28;10487;-51
2021/01/15 04:35:19;;;;;;;;;165.50;154.50;20.80;81.30;;;19.78;61.58;102486.13;5045711;28;10420;-53
2021/01/15 04:37:49;;;;;;;;;148.00;137.00;20.80;81.30;;;19.78;61.45;102485.25;5042060;28;10755;-53
2021/01/15 04:40:16;;;;;;;;;149.25;135.25;20.90;81.50;;;19.78;61.50;102496.00;5046503;28;10132;-53
2021/01/15 04:42:46;;;;;;;;;160.50;140.75;20.70;81.50;;;19.78;61.46;102506.72;5047633;28;10181;-51
2021/01/15 04:45:17;;;;;;;;;152.00;144.75;20.60;81.40;;;19.78;61.47;102512.06;5047596;28;10311;-54
2021/01/15 04:47:48;;;;;;;;;141.50;126.00;20.90;81.30;;;19.77;61.58;102523.75;5049471;28;9952;-52
2021/01/15 04:50:17;;;;;;;;;146.75;134.00;20.60;81.50;;;19.78;61.29;102520.13;5029997;28;9793;-51
2021/01/15 04:52:52;;;;;;;;;135.00;128.50;20.70;81.20;;;19.77;61.34;102523.75;5046977;28;9727;-50
2021/01/15 04:55:26;;;;;;;;;147.00;128.33;20.90;81.50;;;19.77;61.38;102526.44;5052721;28;9524;-51
2021/01/15 04:57:55;;;;;;;;;146.50;136.25;20.70;81.40;;;19.76;61.36;102530.09;5052117;28;9336;-53
2021/01/15 05:00:25;;;;;;;;;134.00;123.33;20.60;81.30;;;19.77;61.21;102539.84;5053030;28;9656;-52
2021/01/15 05:02:53;;;;;;;;;133.33;123.00;20.70;81.30;;;19.75;61.42;102542.66;5047052;28;9564;-52
2021/01/15 05:05:23;;;;;;;;;108.25;106.50;20.70;81.00;;;19.75;61.21;102545.34;5043085;28;8976;-50
2021/01/15 05:08:25;;;;;;;;;129.25;118.00;20.50;81.10;;;19.75;60.73;102549.88;5044025;28;8792;-49
2021/01/15 05:10:53;;;;;;;;;96.60;87.60;20.80;81.00;;;19.71;60.81;102549.22;5040704;28;8823;-51
2021/01/15 05:13:20;;;;;;;;;103.75;96.00;20.60;81.20;;;19.70;60.87;102555.56;5024611;28;8822;-48
2021/01/15 05:15:50;;;;;;;;;97.00;85.40;20.60;81.20;;;19.75;60.57;102552.53;5043697;28;8847;-47
2021/01/15 05:18:20;;;;;;;;;95.80;88.80;20.70;80.70;;;19.77;60.56;102555.94;5035508;28;8790;-53
2021/01/15 05:20:48;;;;;;;;;101.60;92.40;20.60;80.50;;;19.75;60.54;102560.59;5041363;28;8895;-49
2021/01/15 05:23:17;;;;;;;;;95.00;89.00;20.70;80.40;;;19.76;60.43;102563.13;5038652;28;8885;-51
2021/01/15 05:25:48;;;;;;;;;90.20;84.20;20.60;80.20;;;19.76;60.39;102560.44;5052871;28;9021;-55
2021/01/15 05:28:21;;;;;;;;;90.40;82.00;20.60;80.30;;;19.76;60.28;102562.28;5027373;28;8792;-52
2021/01/15 05:30:57;;;;;;;;;88.40;82.40;20.40;80.20;;;19.76;60.21;102567.66;5045306;28;8861;-52
2021/01/15 05:33:24;;;;;;;;;82.60;75.40;20.40;80.20;;;19.75;60.19;102563.28;5044319;28;8808;-53
2021/01/15 05:35:53;;;;;;;;;84.80;76.00;20.50;80.30;;;19.73;59.93;102552.66;5044650;28;8918;-51
2021/01/15 05:38:22;;;;;;;;;82.80;74.40;20.70;80.40;;;19.75;59.79;102547.19;5044634;28;8776;-49
2021/01/15 05:40:57;;;;;;;;;92.80;84.20;20.60;80.20;;;19.73;59.97;102542.78;5041157;28;8775;-49
2021/01/15 05:43:30;;;;;;;;;81.80;75.40;20.60;80.80;;;19.71;59.96;102539.34;5041673;28;8839;-53
2021/01/15 05:46:21;;;;;;;;;83.20;76.60;20.60;80.00;;;19.72;59.95;102534.88;5041944;28;9495;-53
2021/01/15 05:48:53;;;;;;;;;78.00;69.40;20.60;80.20;;;19.70;60.08;102532.28;5039768;28;8852;-48
2021/01/15 05:51:34;;;;;;;;;83.20;77.80;20.80;80.20;;;19.71;59.94;102531.31;5022603;28;8792;-48
2021/01/15 05:54:05;;;;;;;;;75.20;64.20;20.60;80.10;;;19.70;60.16;102526.94;5041818;28;8789;-51
2021/01/15 05:56:47;;;;;;;;;80.60;68.20;20.70;80.10;;;19.70;60.07;102521.56;5041649;28;8844;-48
2021/01/15 05:59:18;;;;;;;;;81.20;70.20;20.60;80.20;;;19.70;60.11;102526.94;5046480;28;8929;-50
2021/01/15 06:01:58;;;;;;;;;81.80;75.60;20.50;80.10;;;19.71;60.46;102530.47;5045374;28;9580;-50
2021/01/15 06:04:40;;;;;;;;;76.20;60.80;20.60;80.40;;;19.69;60.29;102519.00;5045363;28;8800;-54
2021/01/15 06:07:13;;;;;;;;;77.20;62.20;20.60;80.20;;;19.69;60.16;102524.34;5041740;28;8920;-50
2021/01/15 06:09:43;;;;;;;;;80.20;68.40;20.60;80.10;;;19.68;60.19;102518.16;5039958;28;8812;-48
2021/01/15 06:12:14;;;;;;;;;79.40;70.20;20.70;80.10;;;19.69;60.15;102521.66;5048142;28;8807;-51
2021/01/15 06:14:56;;;;;;;;;74.20;60.40;20.50;80.00;;;19.67;60.13;102524.50;5041609;28;8810;-47
2021/01/15 06:17:24;;;;;;;;;74.40;60.60;20.40;79.90;;;19.65;60.52;102533.59;5041268;28;9533;-47
2021/01/15 06:19:54;;;;;;;;;78.20;66.60;20.50;80.20;;;19.59;60.46;102521.53;5042817;28;8948;-48
2021/01/15 06:22:49;;;;;;;;;73.00;61.20;20.40;80.10;;;19.57;60.67;102525.28;5043216;28;8839;-49
2021/01/15 06:25:20;;;;;;;;;70.20;58.00;20.60;80.40;;;19.55;60.75;102538.81;5023912;28;8849;-47
2021/01/15 06:27:48;;;;;;;;;74.80;64.00;20.60;81.00;;;19.53;60.70;102546.94;5044907;28;8917;-51
2021/01/15 06:30:23;;;;;;;;;75.60;58.20;20.50;80.40;;;19.49;60.91;102537.44;5035632;28;8907;-48
2021/01/15 06:32:54;;;;;;;;;66.40;54.20;20.40;80.30;;;19.46;60.97;102524.28;5041164;28;8876;-48
2021/01/15 06:35:30;;;;;;;;;69.60;55.60;20.60;80.40;;;19.47;60.97;102525.13;5044216;28;8814;-47
2021/01/15 06:38:00;;;;;;;;;67.60;54.40;20.40;80.40;;;19.44;60.98;102533.41;5042348;28;8768;-48
2021/01/15 06:40:38;;;;;;;;;61.20;49.40;20.50;80.40;;;19.41;61.41;102531.81;5041661;28;8817;-47
2021/01/15 06:43:22;;;;;;;;;66.80;54.20;20.50;80.50;;;19.42;61.24;102538.03;5039282;28;8800;-49
2021/01/15 06:45:55;;;;;;;;;67.80;52.60;20.50;80.40;;;19.40;61.35;102529.25;5040574;28;8786;-47
2021/01/15 06:48:25;;;;;;;;;63.40;50.80;20.40;80.30;;;19.37;61.36;102526.81;5044236;28;8774;-47
2021/01/15 06:50:57;;;;;;;;;65.60;51.40;20.60;80.70;;;19.36;61.26;102533.13;5042695;28;9511;-49
2021/01/15 06:53:38;;;;;;;;;62.80;48.80;20.40;80.60;;;19.35;61.27;102526.91;5044903;28;8796;-50
2021/01/15 06:56:07;;;;;;;;;65.20;53.00;20.30;80.50;;;19.32;61.44;102521.78;5050768;28;8847;-47
2021/01/15 06:58:42;;;;;;;;;64.80;51.60;20.40;80.50;;;19.32;61.25;102526.28;5039083;28;9499;-47
2021/01/15 07:01:25;;;;;;;;;64.20;52.60;20.40;80.50;;;19.29;61.09;102520.19;5049284;28;8783;-53
2021/01/15 07:04:17;;;;;;;;;61.80;49.60;20.40;80.60;;;19.29;61.31;102525.56;5049197;28;8812;-47
2021/01/15 07:07:13;;;;;;;;;65.80;52.60;20.10;80.30;;;19.27;61.40;102522.13;5026285;28;8826;-49
2021/01/15 07:09:46;;;;;;;;;66.20;52.60;20.50;80.50;;;19.29;61.18;102520.19;5036235;28;8806;-47
2021/01/15 07:12:16;;;;;;;;;66.20;52.00;20.40;80.50;;;19.26;61.33;102520.44;5041314;28;8854;-49
2021/01/15 07:14:59;;;;;;;;;60.80;49.20;20.20;80.40;;;19.26;61.21;102519.59;5048373;28;8847;-47
2021/01/15 07:17:45;;;;;;;;;64.80;52.40;20.50;80.50;;;19.23;61.29;102511.75;5043858;28;9525;-48
2021/01/15 07:20:19;;;;;;;;;65.40;53.20;20.30;80.30;;;19.23;61.29;102512.63;5021279;28;8794;-51
2021/01/15 07:22:52;;;;;;;;;65.00;51.80;20.30;80.30;;;19.20;61.14;102502.13;5043257;28;8922;-49
2021/01/15 07:25:21;;;;;;;;;61.20;49.00;20.20;80.50;;;19.21;61.28;102503.84;5045392;28;8920;-52
2021/01/15 07:27:48;;;;;;;;;60.00;48.20;20.30;80.50;;;19.18;61.16;102501.38;5047866;28;8934;-51
2021/01/15 07:30:26;;;;;;;;;64.00;48.80;20.30;80.50;;;19.20;61.21;102515.53;5047971;28;8797;-52
2021/01/15 07:32:55;;;;;;;;;56.20;46.00;20.30;80.30;;;19.17;61.30;102513.06;5022804;28;8827;-52
2021/01/15 07:35:26;;;;;;;;;59.80;48.80;20.30;80.30;;;19.15;61.29;102509.66;5044574;28;8911;-51
2021/01/15 07:38:16;;;;;;;;;61.80;51.20;20.30;80.50;;;19.15;61.19;102509.66;5044361;28;8800;-50
2021/01/15 07:40:44;;;;;;;;;60.20;47.80;20.20;80.30;;;19.15;61.32;102515.00;5040722;28;9543;-50
2021/01/15 07:43:34;;;;;;;;;52.20;43.20;20.40;80.50;;;19.12;61.16;102514.41;5048206;28;8784;-49
2021/01/15 07:46:05;;;;;;;;;58.60;47.20;20.20;80.40;;;19.13;61.33;102516.94;5047279;28;8776;-51
2021/01/15 07:48:32;;;;;;;;;60.80;48.80;20.20;80.40;;;19.10;61.33;102533.25;5041826;28;8786;-48
2021/01/15 07:50:59;;;;;;;;;54.60;44.60;20.10;80.10;;;19.09;61.35;102534.22;5049185;28;8844;-47
2021/01/15 07:53:40;;;;;;;;;57.20;46.80;20.40;80.50;;;19.07;61.37;102528.97;5048726;28;8888;-50
2021/01/15 07:56:08;;;;;;;;;53.00;44.00;20.20;80.30;;;19.07;61.39;102522.78;5053308;28;8847;-47
2021/01/15 07:58:37;;;;;;;;;54.80;46.00;20.30;80.40;;;19.06;61.39;102526.44;5056004;28;8815;-48
2021/01/15 08:01:11;;;;;;;;;52.00;43.60;20.00;80.40;;;19.06;61.73;102534.47;5052308;28;8880;-49
2021/01/15 08:03:54;;;;;;;;;51.80;44.00;20.10;80.70;;;19.03;61.40;102532.88;5042677;28;8800;-51
2021/01/15 08:06:22;;;;;;;;;52.00;43.20;20.10;80.60;;;19.02;61.53;102535.66;5036891;28;8882;-49
2021/01/15 08:09:10;;;;;;;;;50.00;42.00;20.20;80.70;;;19.00;61.52;102535.75;5045546;28;8785;-51
2021/01/15 08:11:38;;;;;;;;;49.60;40.60;20.00;80.60;;;19.00;61.33;102551.81;5047544;28;8784;-52
2021/01/15 08:14:13;;;;;;;;;44.60;36.60;20.10;80.70;;;19.00;61.69;102559.84;5044873;28;8788;-50
2021/01/15 08:16:45;;;;;;;;;47.20;38.40;20.10;80.70;;;18.98;61.96;102564.50;5048740;28;8921;-50
2021/01/15 08:19:17;;;;;;;;;47.20;40.20;20.00;80.70;;;18.97;61.94;102564.59;5044046;28;9525;-50
2021/01/15 08:21:46;;;;;;;;;38.25;35.25;20.20;81.50;;;18.97;61.82;102552.06;5045254;28;8764;-49
2021/01/15 08:24:14;;;;;;;;;48.00;39.75;20.30;80.90;;;18.96;61.98;102546.84;5055078;28;8808;-49
2021/01/15 08:26:51;;;;;;;;;44.25;39.00;20.20;80.80;;;18.94;61.98;102544.25;5053346;28;8846;-47
2021/01/15 08:29:21;;;;;;;;;42.50;36.75;20.10;80.80;;;18.93;61.72;102541.69;5036111;28;8794;-51
2021/01/15 08:31:58;;;;;;;;;38.25;33.75;20.20;80.90;;;18.93;61.61;102541.69;5046428;28;8788;-49
2021/01/15 08:34:32;;;;;;;;;42.75;36.75;20.00;80.80;;;18.92;61.82;102550.69;5042660;28;9529;-51
2021/01/15 08:37:02;;;;;;;;;36.25;34.25;19.90;80.80;;;18.90;61.71;102542.75;5053854;28;8824;-47
2021/01/15 08:39:41;;;;;;;;;38.00;33.50;19.90;80.70;;;18.91;61.86;102549.00;5043126;28;8896;-50
2021/01/15 08:42:08;;;;;;;;;43.00;37.25;20.00;80.80;;;18.88;61.58;102544.72;5025263;28;8792;-47
2021/01/15 08:44:37;;;;;;;;;39.50;34.50;19.90;80.70;;;18.85;61.89;102535.09;5025273;28;9593;-47
2021/01/15 08:47:15;;;;;;;;;32.00;31.25;20.00;80.70;;;18.84;61.59;102533.34;5039101;28;8834;-50
2021/01/15 08:49:54;;;;;;;;;35.25;33.50;20.00;80.60;;;18.84;61.60;102538.72;5030737;28;8799;-51
2021/01/15 08:52:42;;;;;;;;;30.25;29.25;20.00;80.60;;;18.82;61.91;102531.75;5039666;28;8784;-53
2021/01/15 08:55:11;;;;;;;;;37.25;32.50;20.00;80.60;;;18.81;61.71;102541.63;5038181;28;8885;-50
2021/01/15 08:57:38;;;;;;;;;25.50;24.25;20.00;80.60;;;18.82;61.85;102556.69;5034461;28;8823;-53
2021/01/15 09:00:16;;;;;;;;;32.00;29.00;20.00;80.50;;;18.80;61.79;102552.44;5041701;28;8822;-53
2021/01/15 09:02:44;;;;;;;;;34.75;30.50;20.00;80.50;;;18.80;61.66;102553.31;5045286;28;8790;-48
2021/01/15 09:05:19;;;;;;;;;32.50;31.00;19.80;80.50;;;18.78;61.75;102555.25;5054560;28;8811;-49
2021/01/15 09:07:48;;;;;;;;;25.50;22.50;20.00;80.70;;;18.77;62.06;102558.88;5033964;28;8820;-47
2021/01/15 09:10:18;;;;;;;;;30.25;28.75;19.70;80.60;;;18.76;62.09;102557.16;5044044;28;8800;-54
2021/01/15 09:12:49;;;;;;;;;27.25;25.00;19.90;80.70;;;18.75;62.10;102566.19;5040847;28;8906;-51
2021/01/15 09:15:24;;;;;;;;;28.25;28.00;19.90;80.80;;;18.75;62.25;102570.63;5050977;28;8948;-48
2021/01/15 09:17:52;;;;;;;;;29.75;29.50;19.90;80.80;;;18.75;62.08;102573.28;5045116;28;8780;-52
2021/01/15 09:20:20;;;;;;;;;25.50;25.25;19.90;80.90;;;18.73;62.37;102565.41;5053316;28;8785;-50
2021/01/15 09:22:47;;;;;;;;;30.00;27.50;19.90;81.00;;;18.71;62.47;102575.34;5040829;28;8828;-47
2021/01/15 09:25:16;;;;;;;;;23.50;23.50;20.00;81.20;;;18.72;62.46;102571.69;5054627;28;8796;-49
2021/01/15 09:27:44;;;;;;;;;26.25;25.50;20.00;81.40;;;18.69;62.16;102568.41;5052266;28;8800;-51
2021/01/15 09:30:13;;;;;;;;;23.50;23.50;19.70;81.10;;;18.69;62.20;102577.28;5054620;28;8798;-47
2021/01/15 09:32:45;;;;;;;;;25.75;24.50;19.80;81.20;;;18.68;62.37;102580.94;5051788;28;9532;-47
2021/01/15 09:35:16;;;;;;;;;21.25;19.50;19.80;81.20;;;18.66;62.12;102591.75;5052056;28;8831;-48
2021/01/15 09:37:43;;;;;;;;;26.25;25.00;19.80;81.10;;;18.66;62.36;102581.03;5050702;28;8846;-47
2021/01/15 09:40:10;;;;;;;;;26.50;26.00;19.60;81.00;;;18.65;62.32;102582.00;5051465;28;8796;-48
2021/01/15 09:42:37;;;;;;;;;25.50;23.00;19.80;81.00;;;18.64;62.24;102590.13;5034863;28;8916;-51
2021/01/15 09:45:06;;;;;;;;;20.00;19.25;19.80;81.10;;;18.64;62.13;102582.97;5034301;28;8767;-47
2021/01/15 09:47:34;;;;;;;;;22.00;19.75;19.90;81.20;;;18.62;62.36;102570.66;5045175;28;8829;-47
2021/01/15 09:50:02;;;;;;;;;24.00;22.25;19.90;81.20;;;18.61;62.36;102569.78;5048341;28;8796;-50
2021/01/15 09:52:30;;;;;;;;;20.50;19.75;19.70;81.10;;;18.60;62.42;102569.94;5038361;28;8880;-47
2021/01/15 09:54:57;;;;;;;;;15.50;13.25;19.70;81.10;;;18.59;62.32;102574.41;5034237;28;8984;-50
2021/01/15 09:57:23;;;;;;;;;19.50;18.00;19.70;81.10;;;18.59;62.51;102577.06;5043928;28;8780;-48
2021/01/15 09:59:50;;;;;;;;;23.25;21.50;19.90;81.40;;;18.57;62.51;102573.69;5053808;28;8827;-48
2021/01/15 10:02:17;;;;;;;;;24.75;22.75;19.70;81.20;;;18.57;62.52;102583.50;5035458;28;8797;-50
2021/01/15 10:04:44;;;;;;;;;23.75;22.75;19.60;81.10;;;18.54;62.58;102579.22;5034598;28;9513;-47
2021/01/15 10:07:13;;;;;;;;;19.00;16.00;19.70;81.30;;;18.54;62.51;102583.72;5037774;28;8949;-46
2021/01/15 10:09:40;;;;;;;;;16.75;15.75;19.60;81.30;;;18.53;62.41;102588.22;5047880;28;8818;-49
2021/01/15 10:12:07;;;;;;;;;20.25;18.50;19.70;81.30;;;18.52;62.48;102591.00;5039932;28;8784;-49
2021/01/15 10:14:34;;;;;;;;;21.00;20.00;19.70;81.20;;;18.53;62.48;102600.78;5035704;28;8762;-47
2021/01/15 10:17:01;;;;;;;;;14.75;12.50;19.70;81.10;;;18.52;62.44;102601.72;5046371;28;8815;-46
2021/01/15 10:19:28;;;;;;;;;20.75;18.25;19.50;81.00;;;18.51;62.58;102591.97;5040853;28;8882;-46
2021/01/15 10:21:54;;;;;;;;;17.25;15.25;19.70;81.10;;;18.50;62.38;102599.16;5049251;28;8831;-46
2021/01/15 10:24:21;;;;;;;;;16.50;16.25;19.70;81.00;;;18.50;62.39;102603.66;5047328;28;8831;-50
2021/01/15 10:26:48;;;;;;;;;19.25;18.00;19.70;81.00;;;18.48;62.30;102608.25;5035882;28;8911;-49